createdAt,value
2017-12-04T00:01:59.030Z,6.76
2017-12-04T00:04:00.852Z,6.71
2017-12-04T00:06:43.672Z,6.71
2017-12-04T00:08:45.591Z,6.71
2017-12-04T00:10:48.374Z,6.61
2017-12-04T00:12:50.018Z,6.48
2017-12-04T00:14:51.817Z,6.41
2017-12-04T00:16:53.660Z,6.51
2017-12-04T00:18:55.442Z,6.56
2017-12-04T00:20:57.266Z,6.61
2017-12-04T00:22:59.079Z,6.61
2017-12-04T00:25:41.528Z,6.56
2017-12-04T00:27:44.291Z,6.59
2017-12-04T00:29:45.608Z,6.50
2017-12-04T00:31:47.148Z,6.47
2017-12-04T00:34:29.860Z,6.46
2017-12-04T00:36:32.860Z,6.48
2017-12-04T00:38:34.282Z,6.47
2017-12-04T00:40:35.859Z,6.54
2017-12-04T00:42:37.528Z,6.51
2017-12-04T00:44:39.191Z,6.43
2017-12-04T00:46:40.871Z,6.59
2017-12-04T00:48:42.720Z,6.59
2017-12-04T00:50:44.276Z,6.62
2017-12-04T00:52:45.996Z,6.77
2017-12-04T00:54:47.854Z,6.79
2017-12-04T00:56:50.214Z,6.73
2017-12-04T00:58:51.806Z,6.79
2017-12-04T01:00:53.577Z,6.73
2017-12-04T01:02:55.348Z,6.77
2017-12-04T01:04:57.117Z,6.84
2017-12-04T01:06:58.918Z,6.81
2017-12-04T01:09:00.590Z,6.66
2017-12-04T01:11:02.418Z,6.56
2017-12-04T01:13:04.236Z,6.58
2017-12-04T01:15:06.074Z,6.58
2017-12-04T01:17:52.392Z,6.54
2017-12-04T01:19:55.110Z,6.53
2017-12-04T01:21:56.717Z,6.56
2017-12-04T01:23:58.353Z,6.38
2017-12-04T01:25:59.985Z,6.29
2017-12-04T01:28:01.962Z,6.46
2017-12-04T01:30:03.626Z,6.48
2017-12-04T01:32:05.345Z,6.66
2017-12-04T01:34:07.137Z,6.54
2017-12-04T01:36:50.646Z,6.62
2017-12-04T01:38:53.175Z,6.53
2017-12-04T01:40:54.823Z,6.40
2017-12-04T01:42:56.294Z,6.46
2017-12-04T01:44:58.078Z,6.35
2017-12-04T01:46:59.924Z,6.30
2017-12-04T01:49:01.625Z,6.44
2017-12-04T01:51:03.353Z,6.47
2017-12-04T01:53:46.694Z,6.51
2017-12-04T01:55:48.323Z,6.58
2017-12-04T01:57:50.527Z,6.59
2017-12-04T01:59:52.154Z,6.73
2017-12-04T02:01:54.014Z,6.80
2017-12-04T02:03:55.652Z,6.76
2017-12-04T02:05:57.390Z,6.68
2017-12-04T02:07:59.143Z,6.59
2017-12-04T02:10:00.862Z,6.56
2017-12-04T02:12:02.989Z,6.69
2017-12-04T02:14:04.789Z,6.72
2017-12-04T02:16:06.440Z,6.73
2017-12-04T02:18:08.271Z,6.73
2017-12-04T02:20:10.067Z,6.77
2017-12-04T02:22:11.861Z,6.72
2017-12-04T02:24:55.250Z,6.80
2017-12-04T02:26:56.921Z,6.90
2017-12-04T02:28:59.220Z,6.79
2017-12-04T02:31:00.692Z,6.94
2017-12-04T02:33:02.275Z,6.83
2017-12-04T02:35:03.876Z,6.91
2017-12-04T02:37:05.646Z,6.89
2017-12-04T02:39:07.553Z,6.94
2017-12-04T02:41:09.255Z,6.98
2017-12-04T02:43:10.998Z,6.79
2017-12-04T02:45:12.615Z,6.80
2017-12-04T02:47:14.479Z,6.94
2017-12-04T02:49:16.182Z,6.69
2017-12-04T02:51:17.818Z,6.68
2017-12-04T02:53:19.626Z,6.65
2017-12-04T02:55:21.333Z,6.59
2017-12-04T02:57:23.153Z,6.68
2017-12-04T02:59:24.988Z,6.89
2017-12-04T03:01:26.957Z,6.87
2017-12-04T03:03:28.753Z,6.84
2017-12-04T03:05:30.441Z,6.87
2017-12-04T03:07:32.262Z,6.87
2017-12-04T03:09:34.754Z,6.72
2017-12-04T03:12:19.156Z,6.84
2017-12-04T03:14:21.799Z,6.81
2017-12-04T03:16:24.044Z,6.79
2017-12-04T03:18:25.989Z,6.76
2017-12-04T03:20:27.718Z,6.66
2017-12-04T03:22:29.380Z,6.73
2017-12-04T03:24:31.197Z,6.77
2017-12-04T03:26:32.936Z,6.61
2017-12-04T03:29:15.766Z,6.81
2017-12-04T03:31:17.178Z,6.76
2017-12-04T03:33:18.821Z,6.79
2017-12-04T03:35:20.539Z,6.72
2017-12-04T03:37:23.400Z,6.63
2017-12-04T03:39:24.898Z,6.79
2017-12-04T03:41:26.511Z,6.77
2017-12-04T03:44:10.915Z,6.94
2017-12-04T03:46:13.410Z,6.89
2017-12-04T03:48:15.015Z,6.90
2017-12-04T03:50:16.785Z,6.84
2017-12-04T03:52:18.491Z,6.69
2017-12-04T03:54:20.227Z,6.66
2017-12-04T03:56:21.975Z,6.65
2017-12-04T03:58:23.793Z,6.79
2017-12-04T04:00:25.445Z,6.73
2017-12-04T04:02:27.310Z,6.69
2017-12-04T04:04:29.090Z,6.83
2017-12-04T04:06:30.854Z,6.62
2017-12-04T04:08:32.524Z,6.65
2017-12-04T04:10:34.224Z,6.72
2017-12-04T04:12:36.028Z,6.80
2017-12-04T04:14:37.795Z,6.87
2017-12-04T04:17:22.998Z,6.87
2017-12-04T04:19:24.352Z,6.86
2017-12-04T04:21:25.872Z,6.90
2017-12-04T04:23:28.677Z,6.87
2017-12-04T04:25:30.208Z,6.94
2017-12-04T04:27:31.948Z,6.86
2017-12-04T04:29:33.583Z,6.79
2017-12-04T04:31:35.452Z,6.71
2017-12-04T04:33:37.154Z,6.69
2017-12-04T04:35:39.039Z,6.72
2017-12-04T04:37:40.689Z,6.66
2017-12-04T04:39:42.330Z,6.72
2017-12-04T04:41:43.921Z,6.72
2017-12-04T04:43:45.609Z,6.73
2017-12-04T04:45:47.305Z,6.59
2017-12-04T04:47:49.018Z,6.69
2017-12-04T04:49:50.756Z,6.63
2017-12-04T04:51:52.484Z,6.66
2017-12-04T04:53:54.259Z,6.71
2017-12-04T04:55:56.155Z,6.61
2017-12-04T04:57:57.948Z,6.59
2017-12-04T04:59:59.833Z,6.76
2017-12-04T05:02:01.546Z,6.65
2017-12-04T05:04:03.358Z,6.66
2017-12-04T05:06:05.303Z,6.69
2017-12-04T05:08:06.997Z,6.79
2017-12-04T05:10:08.828Z,6.90
2017-12-04T05:12:11.218Z,6.94
2017-12-04T05:14:13.051Z,6.76
2017-12-04T05:16:14.856Z,6.86
2017-12-04T05:18:16.535Z,6.91
2017-12-04T05:21:00.215Z,6.89
2017-12-04T05:23:01.847Z,6.98
2017-12-04T05:25:45.076Z,6.98
2017-12-04T05:27:48.308Z,6.97
2017-12-04T05:29:49.752Z,6.97
2017-12-04T05:31:51.613Z,7.02
2017-12-04T05:33:53.331Z,6.95
2017-12-04T05:35:55.155Z,6.89
2017-12-04T05:37:56.697Z,6.84
2017-12-04T05:39:58.468Z,6.84
2017-12-04T05:42:00.313Z,6.90
2017-12-04T05:44:02.133Z,6.94
2017-12-04T05:46:03.610Z,7.02
2017-12-04T05:48:05.137Z,6.95
2017-12-04T05:50:06.664Z,6.90
2017-12-04T05:52:49.186Z,6.90
2017-12-04T05:54:50.562Z,6.95
2017-12-04T05:56:52.486Z,6.95
2017-12-04T05:58:54.025Z,6.99
2017-12-04T06:00:55.489Z,7.05
2017-12-04T06:02:56.915Z,6.94
2017-12-04T06:04:58.378Z,7.13
2017-12-04T06:07:42.152Z,7.24
2017-12-04T06:09:43.539Z,7.22
2017-12-04T06:11:44.948Z,7.24
2017-12-04T06:13:46.469Z,7.24
2017-12-04T06:15:49.831Z,7.32
2017-12-04T06:17:51.315Z,7.27
2017-12-04T06:19:53.189Z,7.37
2017-12-04T06:21:55.074Z,7.42
2017-12-04T06:24:38.920Z,7.53
2017-12-04T06:26:41.527Z,7.45
2017-12-04T06:28:43.410Z,7.56
2017-12-04T06:30:45.254Z,7.55
2017-12-04T06:32:46.770Z,7.44
2017-12-04T06:34:48.359Z,7.42
2017-12-04T06:36:50.242Z,7.49
2017-12-04T06:38:52.197Z,7.55
2017-12-04T06:40:54.051Z,7.41
2017-12-04T06:42:55.523Z,7.31
2017-12-04T06:44:57.036Z,7.27
2017-12-04T06:46:58.757Z,7.40
2017-12-04T06:49:00.767Z,7.41
2017-12-04T06:51:02.492Z,7.55
2017-12-04T06:53:04.371Z,7.56
2017-12-04T06:55:06.166Z,7.63
2017-12-04T06:57:07.999Z,7.69
2017-12-04T06:59:10.227Z,7.77
2017-12-04T07:01:11.762Z,7.87
2017-12-04T07:03:13.498Z,7.69
2017-12-04T07:05:15.296Z,7.72
2017-12-04T07:07:17.170Z,7.78
2017-12-04T07:09:19.006Z,7.79
2017-12-04T07:11:20.541Z,7.66
2017-12-04T07:13:22.084Z,7.74
2017-12-04T07:15:23.580Z,7.53
2017-12-04T07:17:25.086Z,7.50
2017-12-04T07:19:26.575Z,7.55
2017-12-04T07:21:28.382Z,7.38
2017-12-04T07:23:30.417Z,7.59
2017-12-04T07:25:32.210Z,7.42
2017-12-04T07:28:14.717Z,7.42
2017-12-04T07:30:17.142Z,7.38
2017-12-04T07:32:18.842Z,7.37
2017-12-04T07:34:20.964Z,7.32
2017-12-04T07:36:22.726Z,7.42
2017-12-04T07:38:24.322Z,7.53
2017-12-04T07:40:25.937Z,7.67
2017-12-04T07:43:08.885Z,7.66
2017-12-04T07:45:11.290Z,7.67
2017-12-04T07:47:13.211Z,7.74
2017-12-04T07:49:14.648Z,7.67
2017-12-04T07:51:16.406Z,7.78
2017-12-04T07:53:17.941Z,7.92
2017-12-04T07:55:19.694Z,7.99
2017-12-04T07:57:21.180Z,8.02
2017-12-04T07:59:22.701Z,7.93
2017-12-04T08:01:24.408Z,7.94
2017-12-04T08:03:26.405Z,8.00
2017-12-04T08:05:28.260Z,7.89
2017-12-04T08:07:29.967Z,7.90
2017-12-04T08:09:31.513Z,7.94
2017-12-04T08:11:33.131Z,8.02
2017-12-04T08:13:35.012Z,8.07
2017-12-04T08:16:18.316Z,7.99
2017-12-04T08:18:20.570Z,8.04
2017-12-04T08:20:22.215Z,8.03
2017-12-04T08:22:24.145Z,8.07
2017-12-04T08:24:25.590Z,8.17
2017-12-04T08:26:27.176Z,8.11
2017-12-04T08:28:29.034Z,8.08
2017-12-04T08:30:30.784Z,8.11
2017-12-04T08:32:32.151Z,8.07
2017-12-04T08:34:33.711Z,7.99
2017-12-04T08:36:35.534Z,7.96
2017-12-04T08:38:37.343Z,7.96
2017-12-04T08:40:39.224Z,8.08
2017-12-04T08:42:41.094Z,8.03
2017-12-04T08:44:43.050Z,8.02
2017-12-04T08:46:44.734Z,7.96
2017-12-04T08:48:46.262Z,7.97
2017-12-04T08:50:48.007Z,7.94
2017-12-04T08:52:49.780Z,7.90
2017-12-04T08:54:51.522Z,7.74
2017-12-04T08:56:53.321Z,7.75
2017-12-04T08:58:55.117Z,7.69
2017-12-04T09:00:56.912Z,7.84
2017-12-04T09:02:58.389Z,7.93
2017-12-04T09:04:59.922Z,8.10
2017-12-04T09:07:01.499Z,8.18
2017-12-04T09:09:03.049Z,8.26
2017-12-04T09:11:04.607Z,8.25
2017-12-04T09:13:06.315Z,8.48
2017-12-04T09:15:08.061Z,8.40
2017-12-04T09:17:10.280Z,8.48
2017-12-04T09:19:52.714Z,8.58
2017-12-04T09:21:54.123Z,8.55
2017-12-04T09:23:55.535Z,8.63
2017-12-04T09:25:57.513Z,8.65
2017-12-04T09:27:59.025Z,8.75
2017-12-04T09:30:00.560Z,8.81
2017-12-04T09:32:02.042Z,8.60
2017-12-04T09:34:44.642Z,8.58
2017-12-04T09:36:46.065Z,8.54
2017-12-04T09:38:47.474Z,8.55
2017-12-04T09:40:48.887Z,8.60
2017-12-04T09:42:51.199Z,8.62
2017-12-04T09:44:54.025Z,8.48
2017-12-04T09:46:55.409Z,8.48
2017-12-04T09:48:56.896Z,8.50
2017-12-04T09:50:58.463Z,8.57
2017-12-04T09:52:59.976Z,8.63
2017-12-04T09:55:01.573Z,8.58
2017-12-04T09:57:03.137Z,8.54
2017-12-04T09:59:04.658Z,8.62
2017-12-04T10:01:06.167Z,8.66
2017-12-04T10:03:08.022Z,8.81
2017-12-04T10:05:09.853Z,8.86
2017-12-04T10:07:11.808Z,8.68
2017-12-04T10:09:13.739Z,8.63
2017-12-04T10:11:15.461Z,8.72
2017-12-04T10:13:17.433Z,8.76
2017-12-04T10:15:19.131Z,8.96
2017-12-04T10:17:20.948Z,8.96
2017-12-04T10:19:22.725Z,9.06
2017-12-04T10:21:24.461Z,9.02
2017-12-04T10:23:26.278Z,9.20
2017-12-04T10:25:27.863Z,9.21
2017-12-04T10:27:29.584Z,9.25
2017-12-04T10:29:31.354Z,9.35
2017-12-04T10:31:32.844Z,9.35
2017-12-04T10:33:34.374Z,9.28
2017-12-04T10:35:36.176Z,9.25
2017-12-04T10:37:37.693Z,9.23
2017-12-04T10:39:39.426Z,9.23
2017-12-04T10:41:41.234Z,9.24
2017-12-04T10:43:43.072Z,9.24
2017-12-04T10:45:44.993Z,9.25
2017-12-04T10:47:47.269Z,9.30
2017-12-04T10:49:49.069Z,9.24
2017-12-04T10:51:50.598Z,9.34
2017-12-04T10:53:52.120Z,9.28
2017-12-04T10:55:53.698Z,9.35
2017-12-04T10:57:55.212Z,9.38
2017-12-04T10:59:56.766Z,9.42
2017-12-04T11:01:58.488Z,9.52
2017-12-04T11:03:59.959Z,9.45
2017-12-04T11:06:01.547Z,9.48
2017-12-04T11:08:03.032Z,9.43
2017-12-04T11:10:45.456Z,9.43
2017-12-04T11:12:46.933Z,9.43
2017-12-04T11:14:48.351Z,9.32
2017-12-04T11:16:49.839Z,9.43
2017-12-04T11:18:51.280Z,9.30
2017-12-04T11:20:52.680Z,9.43
2017-12-04T11:22:54.097Z,9.40
2017-12-04T11:24:55.507Z,9.52
2017-12-04T11:26:56.922Z,9.46
2017-12-04T11:28:59.169Z,9.21
2017-12-04T11:31:01.226Z,9.16
2017-12-04T11:33:02.675Z,9.21
2017-12-04T11:35:04.087Z,9.06
2017-12-04T11:37:05.523Z,9.15
2017-12-04T11:39:06.924Z,9.23
2017-12-04T11:41:08.640Z,9.32
2017-12-04T11:43:10.597Z,9.43
2017-12-04T11:45:12.274Z,9.42
2017-12-04T11:47:13.684Z,9.48
2017-12-04T11:49:15.710Z,9.45
2017-12-04T11:51:17.180Z,9.43
2017-12-04T11:53:18.725Z,9.48
2017-12-04T11:55:20.223Z,9.58
2017-12-04T11:57:22.005Z,9.63
2017-12-04T11:59:23.479Z,9.68
2017-12-04T12:01:24.895Z,9.78
2017-12-04T12:03:26.387Z,9.71
2017-12-04T12:05:27.857Z,9.73
2017-12-04T12:07:29.346Z,9.73
2017-12-04T12:09:31.016Z,9.73
2017-12-04T12:11:32.519Z,9.91
2017-12-04T12:13:34.017Z,9.78
2017-12-04T12:15:35.514Z,9.76
2017-12-04T12:17:37.199Z,9.73
2017-12-04T12:19:39.046Z,9.75
2017-12-04T12:21:40.486Z,9.56
2017-12-04T12:23:42.004Z,9.70
2017-12-04T12:25:43.635Z,9.67
2017-12-04T12:27:45.304Z,9.79
2017-12-04T12:29:46.768Z,9.67
2017-12-04T12:31:48.387Z,9.66
2017-12-04T12:33:49.877Z,9.64
2017-12-04T12:35:51.571Z,9.60
2017-12-04T12:37:53.296Z,9.58
2017-12-04T12:39:54.995Z,9.43
2017-12-04T12:41:56.531Z,9.50
2017-12-04T12:43:58.041Z,9.56
2017-12-04T12:46:40.616Z,9.63
2017-12-04T12:48:42.159Z,9.66
2017-12-04T12:50:43.567Z,9.63
2017-12-04T12:52:44.980Z,9.71
2017-12-04T12:54:46.403Z,9.66
2017-12-04T12:56:48.188Z,9.67
2017-12-04T12:58:49.811Z,9.58
2017-12-04T13:01:32.401Z,9.68
2017-12-04T13:03:33.830Z,9.66
2017-12-04T13:05:35.246Z,9.73
2017-12-04T13:07:36.670Z,9.85
2017-12-04T13:09:38.106Z,9.93
2017-12-04T13:11:40.079Z,9.96
2017-12-04T13:13:41.610Z,9.88
2017-12-04T13:15:42.995Z,9.81
2017-12-04T13:17:44.412Z,9.82
2017-12-04T13:19:45.827Z,9.78
2017-12-04T13:21:47.236Z,9.73
2017-12-04T13:23:48.798Z,9.75
2017-12-04T13:25:50.333Z,9.68
2017-12-04T13:27:51.729Z,9.75
2017-12-04T13:29:53.152Z,9.58
2017-12-04T13:31:54.568Z,9.58
2017-12-04T13:33:55.981Z,9.68
2017-12-04T13:35:57.406Z,9.70
2017-12-04T13:37:58.858Z,9.70
2017-12-04T13:40:00.555Z,9.63
2017-12-04T13:42:01.973Z,9.70
2017-12-04T13:44:03.405Z,9.70
2017-12-04T13:46:04.872Z,9.94
2017-12-04T13:48:06.292Z,9.78
2017-12-04T13:50:07.711Z,9.70
2017-12-04T13:52:09.137Z,9.79
2017-12-04T13:54:10.566Z,9.73
2017-12-04T13:56:12.029Z,9.75
2017-12-04T13:58:13.450Z,9.67
2017-12-04T14:00:15.065Z,9.64
2017-12-04T14:02:16.444Z,9.71
2017-12-04T14:04:58.937Z,9.58
2017-12-04T14:07:00.354Z,9.64
2017-12-04T14:09:01.768Z,9.60
2017-12-04T14:11:03.272Z,9.66
2017-12-04T14:13:04.693Z,9.61
2017-12-04T14:15:06.129Z,9.68
2017-12-04T14:17:07.686Z,9.63
2017-12-04T14:19:09.237Z,9.70
2017-12-04T14:21:50.661Z,9.75
2017-12-04T14:23:52.080Z,9.82
2017-12-04T14:25:53.488Z,9.89
2017-12-04T14:27:54.917Z,9.89
2017-12-04T14:29:56.340Z,9.93
2017-12-04T14:31:58.162Z,9.94
2017-12-04T14:33:59.755Z,9.91
2017-12-04T14:36:01.376Z,9.93
2017-12-04T14:38:02.791Z,9.94
2017-12-04T14:40:04.213Z,9.73
2017-12-04T14:42:05.636Z,9.57
2017-12-04T14:44:07.139Z,9.52
2017-12-04T14:46:08.921Z,9.43
2017-12-04T14:48:10.953Z,9.43
2017-12-04T14:50:12.706Z,9.53
2017-12-04T14:52:54.302Z,9.48
2017-12-04T14:54:55.806Z,9.50
2017-12-04T14:56:57.246Z,9.61
2017-12-04T14:58:58.648Z,9.63
2017-12-04T15:01:00.070Z,9.58
2017-12-04T15:03:02.403Z,9.56
2017-12-04T15:05:03.838Z,9.43
2017-12-04T15:07:05.242Z,9.61
2017-12-04T15:09:47.928Z,9.63
2017-12-04T15:11:49.890Z,9.64
2017-12-04T15:13:51.403Z,9.52
2017-12-04T15:15:53.208Z,9.53
2017-12-04T15:17:54.603Z,9.66
2017-12-04T15:19:56.015Z,9.56
2017-12-04T15:21:57.463Z,9.52
2017-12-04T15:23:59.040Z,9.56
2017-12-04T15:26:00.478Z,9.53
2017-12-04T15:28:01.891Z,9.56
2017-12-04T15:30:03.330Z,9.32
2017-12-04T15:32:04.812Z,9.43
2017-12-04T15:34:06.244Z,9.50
2017-12-04T15:36:07.642Z,9.56
2017-12-04T15:38:09.103Z,9.48
2017-12-04T15:40:10.532Z,9.53
2017-12-04T15:42:11.983Z,9.58
2017-12-04T15:44:13.479Z,9.46
2017-12-04T15:46:16.058Z,9.46
2017-12-04T15:48:18.438Z,9.56
2017-12-04T15:50:19.938Z,9.57
2017-12-04T15:52:21.809Z,9.61
2017-12-04T15:54:23.479Z,9.39
2017-12-04T15:57:06.968Z,9.34
2017-12-04T15:59:08.426Z,9.42
2017-12-04T16:01:09.974Z,9.45
2017-12-04T16:03:11.870Z,9.43
2017-12-04T16:05:14.393Z,9.58
2017-12-04T16:07:15.937Z,9.60
2017-12-04T16:09:17.485Z,9.57
2017-12-04T16:11:18.948Z,9.56
2017-12-04T16:13:20.414Z,9.40
2017-12-04T16:15:22.135Z,9.53
2017-12-04T16:17:23.574Z,9.58
2017-12-04T16:19:25.196Z,9.58
2017-12-04T16:21:26.765Z,9.43
2017-12-04T16:23:28.298Z,9.45
2017-12-04T16:25:29.913Z,9.42
2017-12-04T16:27:31.780Z,9.34
2017-12-04T16:29:33.228Z,9.43
2017-12-04T16:31:34.832Z,9.48
2017-12-04T16:33:36.423Z,9.43
2017-12-04T16:35:37.892Z,9.56
2017-12-04T16:37:40.590Z,9.56
2017-12-04T16:39:42.388Z,9.61
2017-12-04T16:41:44.162Z,9.58
2017-12-04T16:44:26.607Z,9.64
2017-12-04T16:46:28.482Z,9.53
2017-12-04T16:48:30.538Z,9.63
2017-12-04T16:50:32.168Z,9.45
2017-12-04T16:52:33.636Z,9.50
2017-12-04T16:54:35.047Z,9.64
2017-12-04T16:56:36.513Z,9.71
2017-12-04T16:58:38.242Z,9.64
2017-12-04T17:00:39.862Z,9.79
2017-12-04T17:02:41.434Z,9.70
2017-12-04T17:04:43.045Z,9.82
2017-12-04T17:06:45.360Z,9.78
2017-12-04T17:08:46.856Z,9.78
2017-12-04T17:10:48.309Z,9.89
2017-12-04T17:12:49.896Z,9.91
2017-12-04T17:14:51.492Z,9.83
2017-12-04T17:16:53.462Z,9.91
2017-12-04T17:18:54.952Z,9.89
2017-12-04T17:20:56.640Z,9.89
2017-12-04T17:22:58.082Z,9.82
2017-12-04T17:24:59.624Z,9.79
2017-12-04T17:27:01.261Z,9.79
2017-12-04T17:29:03.748Z,9.85
2017-12-04T17:31:05.256Z,9.79
2017-12-04T17:33:06.752Z,9.78
2017-12-04T17:35:08.284Z,9.75
2017-12-04T17:37:09.844Z,9.73
2017-12-04T17:39:11.382Z,9.64
2017-12-04T17:41:13.195Z,9.70
2017-12-04T17:43:14.710Z,9.76
2017-12-04T17:45:16.407Z,9.82
2017-12-04T17:47:18.141Z,9.73
2017-12-04T17:49:19.983Z,9.68
2017-12-04T17:51:21.503Z,9.73
2017-12-04T17:53:23.214Z,9.70
2017-12-04T17:55:24.931Z,9.71
2017-12-04T17:57:26.474Z,9.67
2017-12-04T17:59:28.006Z,9.66
2017-12-04T18:01:29.812Z,9.70
2017-12-04T18:03:31.303Z,9.70
2017-12-04T18:05:32.805Z,9.67
2017-12-04T18:07:34.304Z,9.58
2017-12-04T18:09:36.118Z,9.63
2017-12-04T18:11:37.817Z,9.56
2017-12-04T18:13:39.510Z,9.71
2017-12-04T18:15:41.090Z,9.66
2017-12-04T18:17:42.723Z,9.66
2017-12-04T18:19:44.318Z,9.73
2017-12-04T18:21:46.065Z,9.60
2017-12-04T18:23:47.956Z,9.67
2017-12-04T18:25:49.633Z,9.66
2017-12-04T18:27:51.338Z,9.67
2017-12-04T18:29:52.879Z,9.67
2017-12-04T18:31:54.529Z,9.43
2017-12-04T18:33:56.349Z,9.43
2017-12-04T18:35:58.083Z,9.56
2017-12-04T18:37:59.920Z,9.50
2017-12-04T18:40:01.684Z,9.50
2017-12-04T18:42:03.177Z,9.45
2017-12-04T18:44:04.930Z,9.46
2017-12-04T18:46:06.397Z,9.45
2017-12-04T18:48:07.890Z,9.40
2017-12-04T18:50:09.493Z,9.34
2017-12-04T18:52:10.972Z,9.30
2017-12-04T18:54:12.445Z,9.43
2017-12-04T18:56:14.253Z,9.40
2017-12-04T18:58:16.156Z,9.53
2017-12-04T19:00:17.675Z,9.48
2017-12-04T19:02:19.263Z,9.35
2017-12-04T19:04:21.072Z,9.24
2017-12-04T19:06:22.649Z,9.23
2017-12-04T19:08:24.161Z,9.06
2017-12-04T19:10:25.900Z,8.86
2017-12-04T19:12:27.840Z,8.75
2017-12-04T19:14:29.697Z,8.68
2017-12-04T19:16:31.640Z,8.58
2017-12-04T19:18:33.674Z,8.50
2017-12-04T19:20:35.470Z,8.48
2017-12-04T19:22:36.942Z,8.29
2017-12-04T19:24:38.446Z,8.39
2017-12-04T19:26:39.990Z,8.45
2017-12-04T19:28:41.488Z,8.50
2017-12-04T19:30:43.133Z,8.55
2017-12-04T19:32:44.651Z,8.63
2017-12-04T19:34:46.156Z,8.62
2017-12-04T19:36:47.610Z,8.54
2017-12-04T19:39:29.022Z,8.45
2017-12-04T19:41:30.433Z,8.29
2017-12-04T19:43:31.851Z,8.26
2017-12-04T19:45:33.390Z,8.22
2017-12-04T19:47:34.783Z,8.21
2017-12-04T19:49:36.177Z,8.25
2017-12-04T19:51:37.587Z,8.29
2017-12-04T19:53:38.992Z,8.33
2017-12-04T19:55:40.403Z,8.36
2017-12-04T19:57:42.856Z,8.25
2017-12-04T19:59:44.294Z,8.25
2017-12-04T20:01:45.694Z,8.28
2017-12-04T20:03:47.321Z,8.18
2017-12-04T20:05:48.754Z,8.28
2017-12-04T20:07:50.232Z,8.29
2017-12-04T20:09:51.984Z,8.29
2017-12-04T20:11:53.662Z,8.32
2017-12-04T20:13:55.133Z,8.37
2017-12-04T20:15:56.643Z,8.48
2017-12-04T20:17:58.476Z,8.50
2017-12-04T20:20:00.265Z,8.47
2017-12-04T20:22:01.945Z,8.57
2017-12-04T20:24:03.782Z,8.58
2017-12-04T20:26:05.251Z,8.54
2017-12-04T20:28:07.079Z,8.50
2017-12-04T20:30:08.886Z,8.22
2017-12-04T20:32:10.478Z,8.18
2017-12-04T20:34:11.974Z,8.18
2017-12-04T20:36:13.453Z,8.04
2017-12-04T20:38:14.927Z,7.87
2017-12-04T20:40:16.632Z,7.93
2017-12-04T20:42:18.352Z,7.89
2017-12-04T20:44:20.104Z,7.93
2017-12-04T20:46:21.979Z,7.97
2017-12-04T20:48:23.695Z,7.92
2017-12-04T20:50:25.534Z,8.10
2017-12-04T20:52:27.249Z,7.90
2017-12-04T20:54:28.727Z,8.02
2017-12-04T20:56:30.174Z,7.92
2017-12-04T20:58:32.038Z,7.96
2017-12-04T21:00:33.676Z,8.00
2017-12-04T21:02:35.163Z,7.99
2017-12-04T21:04:36.849Z,7.97
2017-12-04T21:06:38.401Z,8.00
2017-12-04T21:08:39.998Z,7.84
2017-12-04T21:10:41.638Z,7.79
2017-12-04T21:12:43.121Z,7.79
2017-12-04T21:14:44.546Z,7.93
2017-12-04T21:16:45.974Z,7.90
2017-12-04T21:18:47.462Z,7.78
2017-12-04T21:20:49.150Z,7.77
2017-12-04T21:22:50.815Z,7.71
2017-12-04T21:24:52.317Z,7.72
2017-12-04T21:26:53.984Z,7.71
2017-12-04T21:28:55.525Z,7.71
2017-12-04T21:30:57.264Z,7.82
2017-12-04T21:32:59.198Z,7.93
2017-12-04T21:35:00.947Z,7.87
2017-12-04T21:37:02.831Z,7.60
2017-12-04T21:39:04.579Z,7.58
2017-12-04T21:41:06.324Z,7.69
2017-12-04T21:43:08.127Z,7.78
2017-12-04T21:45:10.655Z,7.81
2017-12-04T21:47:12.337Z,7.87
2017-12-04T21:49:14.283Z,7.81
2017-12-04T21:51:16.199Z,7.66
2017-12-04T21:53:18.148Z,7.77
2017-12-04T21:55:19.831Z,7.84
2017-12-04T21:57:21.471Z,7.85
2017-12-04T21:59:23.437Z,7.84
2017-12-04T22:01:25.234Z,7.79
2017-12-04T22:03:26.938Z,7.62
2017-12-04T22:05:28.793Z,7.77
2017-12-04T22:07:30.619Z,7.78
2017-12-04T22:09:32.449Z,7.69
2017-12-04T22:11:34.366Z,7.59
2017-12-04T22:13:36.232Z,7.66
2017-12-04T22:15:38.111Z,7.41
2017-12-04T22:17:39.799Z,7.52
2017-12-04T22:19:41.616Z,7.45
2017-12-04T22:21:43.756Z,7.40
2017-12-04T22:23:45.620Z,7.47
2017-12-04T22:25:47.572Z,7.55
2017-12-04T22:27:49.471Z,7.38
2017-12-04T22:29:51.409Z,7.41
2017-12-04T22:31:53.211Z,7.58
2017-12-04T22:34:36.390Z,7.74
2017-12-04T22:36:38.606Z,7.81
2017-12-04T22:38:41.052Z,7.79
2017-12-04T22:40:42.676Z,7.67
2017-12-04T22:42:44.374Z,7.44
2017-12-04T22:44:46.189Z,7.38
2017-12-04T22:46:48.177Z,7.63
2017-12-04T22:48:49.979Z,7.56
2017-12-04T22:51:36.921Z,7.66
2017-12-04T22:53:39.747Z,7.58
2017-12-04T22:55:41.204Z,7.58
2017-12-04T22:57:42.759Z,7.47
2017-12-04T22:59:44.621Z,7.55
2017-12-04T23:01:46.418Z,7.71
2017-12-04T23:03:48.072Z,7.63
2017-12-04T23:05:50.026Z,7.58
2017-12-04T23:07:51.823Z,7.44
2017-12-04T23:09:53.683Z,7.27
2017-12-04T23:11:55.620Z,7.29
2017-12-04T23:13:57.457Z,7.45
2017-12-04T23:15:59.360Z,7.26
2017-12-04T23:18:01.163Z,7.22
2017-12-04T23:20:03.097Z,7.13
2017-12-04T23:22:04.923Z,7.09
2017-12-04T23:24:06.732Z,7.13
2017-12-04T23:26:08.663Z,7.08
2017-12-04T23:28:11.316Z,7.07
2017-12-04T23:30:13.174Z,7.15
2017-12-04T23:32:14.961Z,7.16
2017-12-04T23:34:17.096Z,7.16
2017-12-04T23:36:19.284Z,7.08
2017-12-04T23:38:21.374Z,6.98
2017-12-04T23:40:23.348Z,6.98
2017-12-04T23:42:25.196Z,7.09
2017-12-04T23:44:26.979Z,7.16
2017-12-04T23:46:28.731Z,7.19
2017-12-04T23:48:30.609Z,7.22
2017-12-04T23:50:32.442Z,7.35
2017-12-04T23:52:34.075Z,7.44
2017-12-04T23:54:35.938Z,7.49
2017-12-04T23:56:37.847Z,7.35
2017-12-04T23:58:40.163Z,7.34
